Time;durP1;ratioP1;P1;durP2;ratioP2;P2;SDS_P1;SDS_P2;PMS_P1;PMS_P2;Temp;Humidity;BMP_temperature;BMP_pressure;BME280_temperature;BME280_humidity;BME280_pressure;Samples;Min_cycle;Max_cycle;Signal;HPM_P1;HPM_P2
2021/03/23 00:00:57;;;;;;;6.60;1.63;;;;;;;1.76;100.00;97022.44;5015193;28;20542;-87
2021/03/23 00:03:43;;;;;;;2.72;1.63;;;;;;;1.79;100.00;97026.75;4999127;28;22266;-87
2021/03/23 00:06:12;;;;;;;2.10;2.00;;;;;;;1.79;100.00;97037.28;4999119;28;20029;-88
2021/03/23 00:08:43;;;;;;;4.30;2.35;;;;;;;1.75;100.00;97027.78;4999030;28;20025;-89
2021/03/23 00:11:15;;;;;;;10.00;3.10;;;;;;;1.85;100.00;97034.44;4999206;28;20033;-91
2021/03/23 00:13:42;;;;;;;1.85;1.75;;;;;;;1.78;100.00;97023.28;4998956;28;20103;-90
2021/03/23 00:16:08;;;;;;;1.95;1.85;;;;;;;1.80;100.00;97029.34;4998988;28;20523;-88
2021/03/23 00:18:34;;;;;;;0.75;0.73;;;;;;;1.83;100.00;97036.28;4999285;28;20481;-88
2021/03/23 00:21:00;;;;;;;1.95;1.85;;;;;;;1.77;100.00;97031.22;5015347;28;20057;-88
2021/03/23 00:23:26;;;;;;;4.65;1.77;;;;;;;1.81;100.00;97032.84;4998493;28;20512;-87
2021/03/23 00:25:51;;;;;;;1.00;1.00;;;;;;;1.78;100.00;97033.81;5000731;28;20025;-88
2021/03/23 00:28:17;;;;;;;1.20;1.10;;;;;;;1.78;100.00;97017.13;5002521;28;20032;-88
2021/03/23 00:30:43;;;;;;;3.63;1.85;;;;;;;1.82;100.00;97031.91;5001840;28;20060;-88
2021/03/23 00:33:08;;;;;;;9.93;2.85;;;;;;;1.80;100.00;97025.84;5001467;28;20059;-88
2021/03/23 00:35:34;;;;;;;2.33;2.13;;;;;;;1.80;100.00;97024.06;5002206;28;20030;-88
2021/03/23 00:38:02;;;;;;;6.88;2.30;;;;;;;1.85;100.00;97029.16;5001808;28;20030;-88
2021/03/23 00:40:29;;;;;;;1.35;1.25;;;;;;;1.78;100.00;97027.69;5002024;28;20025;-88
2021/03/23 00:42:56;;;;;;;2.78;1.42;;;;;;;1.77;100.00;97031.22;5002761;28;20021;-88
2021/03/23 00:45:22;;;;;;;1.42;1.33;;;;;;;1.75;100.00;97018.13;5002280;28;20544;-89
2021/03/23 00:47:47;;;;;;;1.58;1.48;;;;;;;1.68;100.00;97026.28;5002079;28;20056;-87
2021/03/23 00:50:13;;;;;;;0.60;0.60;;;;;;;1.61;100.00;97030.91;5001731;28;20029;-87
2021/03/23 00:52:39;;;;;;;1.38;1.25;;;;;;;1.54;100.00;97019.72;5001568;28;20052;-88
2021/03/23 00:55:06;;;;;;;2.25;1.98;;;;;;;1.62;100.00;97032.63;5001951;28;20469;-88
2021/03/23 00:57:31;;;;;;;1.05;1.05;;;;;;;1.62;100.00;97051.94;5001450;28;20122;-87
2021/03/23 00:59:57;;;;;;;2.80;1.38;;;;;;;1.71;100.00;97047.25;5002200;28;20077;-88
2021/03/23 01:02:22;;;;;;;0.57;0.55;;;;;;;1.69;100.00;97038.56;5001594;28;20408;-88
2021/03/23 01:04:48;;;;;;;1.05;0.85;;;;;;;1.61;100.00;97050.22;5001116;28;20021;-88
2021/03/23 01:07:14;;;;;;;1.10;0.75;;;;;;;1.66;100.00;97047.44;5001758;28;20029;-88
2021/03/23 01:09:39;;;;;;;1.85;1.42;;;;;;;1.71;100.00;97047.25;5001356;28;20528;-88
2021/03/23 01:12:08;;;;;;;1.17;1.17;;;;;;;1.80;100.00;97052.19;5002229;28;20477;-88
2021/03/23 01:14:36;;;;;;;0.43;0.43;;;;;;;1.69;100.00;97049.09;5002312;28;20460;-88
2021/03/23 01:17:02;;;;;;;0.20;0.20;;;;;;;1.64;100.00;97058.00;5001778;28;20037;-88
2021/03/23 01:19:28;;;;;;;0.38;0.38;;;;;;;1.68;100.00;97055.28;5001446;28;20033;-88
2021/03/23 01:21:53;;;;;;;1.02;0.77;;;;;;;1.63;100.00;97056.28;5001192;28;20026;-87
2021/03/23 01:24:19;;;;;;;0.70;0.70;;;;;;;1.61;100.00;97058.13;5000910;28;20084;-88
2021/03/23 01:26:45;;;;;;;2.22;1.52;;;;;;;1.63;100.00;97061.56;5000963;28;20021;-87
2021/03/23 01:29:10;;;;;;;0.88;0.80;;;;;;;1.67;100.00;97066.72;5000423;28;20025;-87
2021/03/23 01:31:36;;;;;;;5.80;3.60;;;;;;;1.72;100.00;97065.66;5000607;28;20029;-89
2021/03/23 01:34:04;;;;;;;3.10;2.08;;;;;;;1.71;100.00;97069.22;5001039;28;20106;-87
2021/03/23 01:36:29;;;;;;;14.50;5.53;;;;;;;1.70;100.00;97050.78;4999807;28;20029;-88
2021/03/23 01:38:55;;;;;;;2.13;1.95;;;;;;;1.69;100.00;97049.09;5016967;28;20025;-88
2021/03/23 01:41:21;;;;;;;0.82;0.82;;;;;;;1.72;100.00;97060.41;5000831;28;20034;-88
2021/03/23 01:43:46;;;;;;;9.40;1.13;;;;;;;1.59;100.00;97062.59;5001076;28;20464;-88
2021/03/23 01:46:33;;;;;;;1.63;1.52;;;;;;;1.63;100.00;97061.56;5000460;28;20125;-87
2021/03/23 01:49:00;;;;;;;0.50;0.50;;;;;;;1.54;100.00;97048.69;5017541;28;20028;-88
2021/03/23 01:51:26;;;;;;;1.50;1.38;;;;;;;1.63;100.00;97063.34;5017112;28;20071;-87
2021/03/23 01:53:55;;;;;;;0.50;0.50;;;;;;;1.64;100.00;97057.16;5000347;28;20444;-88
2021/03/23 01:56:21;;;;;;;4.95;2.53;;;;;;;1.60;100.00;97056.38;5000231;28;20116;-87
2021/03/23 01:58:48;;;;;;;1.15;1.10;;;;;;;1.63;100.00;97060.72;5000563;28;20049;-88
2021/03/23 02:01:16;;;;;;;2.08;1.90;;;;;;;1.61;100.00;97060.75;5000398;28;20061;-88
2021/03/23 02:03:42;;;;;;;1.83;1.70;;;;;;;1.59;100.00;97069.63;5001242;28;20033;-88
2021/03/23 02:06:32;;;;;;;0.80;0.80;;;;;;;1.60;100.00;97061.66;5001560;28;20505;-88
2021/03/23 02:08:59;;;;;;;0.70;0.70;;;;;;;1.67;100.00;97072.00;5017744;28;20033;-87
2021/03/23 02:11:25;;;;;;;3.95;1.75;;;;;;;1.62;100.00;97070.41;5000393;28;20412;-88
2021/03/23 02:13:52;;;;;;;2.33;1.48;;;;;;;1.64;100.00;97079.09;5016368;28;20036;-88
2021/03/23 02:16:18;;;;;;;2.28;1.52;;;;;;;1.54;100.00;97059.22;5016820;28;20112;-88
2021/03/23 02:18:44;;;;;;;1.02;0.45;;;;;;;1.66;100.00;97072.91;4999230;28;20057;-88
2021/03/23 02:21:13;;;;;;;1.33;1.23;;;;;;;1.68;100.00;97079.00;5000405;28;20022;-88
2021/03/23 02:23:41;;;;;;;0.88;0.88;;;;;;;1.63;100.00;97074.72;4999808;28;20025;-87
2021/03/23 02:26:12;;;;;;;0.60;0.60;;;;;;;1.69;100.00;97080.72;5000691;28;20022;-89
2021/03/23 02:28:56;;;;;;;1.25;0.73;;;;;;;1.60;100.00;97073.97;5000126;28;20519;-88
2021/03/23 02:31:36;;;;;;;0.20;0.20;;;;;;;1.56;100.00;97069.75;4999939;28;20183;-87
2021/03/23 02:34:04;;;;;;;1.38;1.23;;;;;;;1.58;100.00;97073.16;5016569;28;20115;-87
2021/03/23 02:36:30;;;;;;;1.80;1.40;;;;;;;1.60;100.00;97076.59;4999858;28;20036;-87
2021/03/23 02:38:57;;;;;;;0.73;0.73;;;;;;;1.56;100.00;97075.88;5000142;28;20034;-88
2021/03/23 02:41:22;;;;;;;0.85;0.85;;;;;;;1.57;100.00;97076.72;5015921;28;20033;-88
2021/03/23 02:43:48;;;;;;;2.78;1.13;;;;;;;1.53;100.00;97081.25;4999947;28;20433;-88
2021/03/23 02:46:14;;;;;;;1.58;1.48;;;;;;;1.52;100.00;97074.25;4999734;28;20404;-88
2021/03/23 02:48:40;;;;;;;1.60;1.50;;;;;;;1.60;100.00;97080.09;4999335;28;20141;-87
2021/03/23 02:51:05;;;;;;;0.80;0.80;;;;;;;1.56;100.00;97067.97;5015759;28;20077;-87
2021/03/23 02:53:31;;;;;;;3.85;1.75;;;;;;;1.55;100.00;97073.28;4999944;28;20199;-87
2021/03/23 02:55:57;;;;;;;0.85;0.85;;;;;;;1.64;100.00;97084.38;4999622;28;20033;-88
2021/03/23 02:58:22;;;;;;;0.55;0.55;;;;;;;1.56;100.00;97078.50;4999108;28;20035;-87
2021/03/23 03:00:48;;;;;;;0.85;0.85;;;;;;;1.61;100.00;97087.09;5015501;28;20477;-88
2021/03/23 03:03:14;;;;;;;1.67;1.23;;;;;;;1.53;100.00;97070.72;4995934;28;20045;-86
2021/03/23 03:05:40;;;;;;;1.20;1.02;;;;;;;1.54;100.00;97077.69;4998839;28;20041;-87
2021/03/23 03:08:06;;;;;;;1.65;1.20;;;;;;;1.62;100.00;97091.47;4999083;28;20501;-87
2021/03/23 03:10:33;;;;;;;4.00;1.45;;;;;;;1.64;100.00;97089.63;4999283;28;20183;-87
2021/03/23 03:13:00;;;;;;;0.47;0.47;;;;;;;1.59;100.00;97081.03;4999140;28;20029;-87
2021/03/23 03:15:26;;;;;;;1.48;1.13;;;;;;;1.56;100.00;97086.41;4999375;28;20069;-87
2021/03/23 03:17:52;;;;;;;1.80;0.90;;;;;;;1.57;100.00;97089.88;4999325;28;20080;-87
2021/03/23 03:20:18;;;;;;;2.03;1.85;;;;;;;1.60;100.00;97093.28;4999133;28;20033;-87
2021/03/23 03:22:44;;;;;;;0.63;0.63;;;;;;;1.63;100.00;97100.25;4998322;28;20030;-87
2021/03/23 03:25:12;;;;;;;1.25;1.10;;;;;;;1.71;100.00;97105.25;4998322;28;20048;-87
2021/03/23 03:27:38;;;;;;;0.63;0.63;;;;;;;1.70;100.00;97101.75;5015550;28;20481;-87
2021/03/23 03:30:09;;;;;;;0.50;0.50;;;;;;;1.75;100.00;97109.50;4998413;28;20022;-86
2021/03/23 03:32:35;;;;;;;1.75;1.65;;;;;;;1.57;100.00;97105.69;4998395;28;20025;-88
2021/03/23 03:35:03;;;;;;;1.50;1.15;;;;;;;1.54;100.00;97113.72;4998787;28;20064;-86
2021/03/23 03:37:28;;;;;;;0.40;0.40;;;;;;;1.59;100.00;97114.44;4995424;28;20049;-87
2021/03/23 03:39:54;;;;;;;0.45;0.45;;;;;;;1.60;100.00;97111.72;4997567;28;20034;-87
2021/03/23 03:42:19;;;;;;;0.93;0.88;;;;;;;1.63;100.00;97109.00;4998686;28;20052;-87
2021/03/23 03:44:45;;;;;;;1.70;1.60;;;;;;;1.58;100.00;97110.94;4998486;28;20029;-87
2021/03/23 03:47:11;;;;;;;1.17;1.17;;;;;;;1.57;100.00;97125.00;4998776;28;20053;-88
2021/03/23 03:49:36;;;;;;;2.10;0.85;;;;;;;1.58;100.00;97129.38;4998829;28;20421;-88
2021/03/23 03:52:02;;;;;;;3.95;1.95;;;;;;;1.57;100.00;97127.66;4998575;28;20033;-88
2021/03/23 03:54:28;;;;;;;2.35;1.80;;;;;;;1.53;100.00;97120.78;4998814;28;20543;-87
2021/03/23 03:56:53;;;;;;;2.22;1.25;;;;;;;1.50;100.00;97126.16;4998994;28;20116;-87
2021/03/23 03:59:19;;;;;;;0.90;0.80;;;;;;;1.56;100.00;97127.72;4998882;28;20065;-87
2021/03/23 04:01:44;;;;;;;0.93;0.93;;;;;;;1.60;100.00;97132.81;5020519;28;20083;-87
2021/03/23 04:04:10;;;;;;;1.42;1.33;;;;;;;1.51;100.00;97112.03;5001357;28;20084;-87
2021/03/23 04:06:36;;;;;;;0.52;0.52;;;;;;;1.56;100.00;97130.34;5001253;28;20041;-87
2021/03/23 04:09:01;;;;;;;1.50;1.40;;;;;;;1.56;100.00;97122.44;5021188;28;20045;-88
2021/03/23 04:11:27;;;;;;;4.95;2.33;;;;;;;1.51;100.00;97117.31;5005142;28;20032;-87
2021/03/23 04:13:52;;;;;;;0.93;0.93;;;;;;;1.62;100.00;97131.00;5005120;28;20033;-87
2021/03/23 04:16:18;;;;;;;9.07;6.93;;;;;;;1.67;100.00;97129.97;5021860;28;20025;-87
2021/03/23 04:18:43;;;;;;;6.30;5.70;;;;;;;1.65;100.00;97135.31;5005651;28;20029;-87
2021/03/23 04:21:09;;;;;;;2.22;2.03;;;;;;;1.70;100.00;97150.94;5005632;28;20478;-86
2021/03/23 04:23:39;;;;;;;1.88;1.77;;;;;;;1.67;100.00;97154.56;5005909;28;20037;-87
2021/03/23 04:26:09;;;;;;;5.22;3.03;;;;;;;1.64;100.00;97150.25;5005485;28;20025;-87
2021/03/23 04:28:35;;;;;;;1.60;1.50;;;;;;;1.61;100.00;97142.44;5002355;28;20484;-87
2021/03/23 04:31:01;;;;;;;5.60;2.65;;;;;;;1.69;100.00;97158.03;5005141;28;20036;-85
2021/03/23 04:33:28;;;;;;;1.05;1.02;;;;;;;1.73;100.00;97156.13;5004594;28;20152;-88
2021/03/23 04:35:59;;;;;;;4.22;2.38;;;;;;;1.74;100.00;97160.50;5004105;28;20037;-87
2021/03/23 04:38:30;;;;;;;1.48;1.42;;;;;;;1.82;100.00;97166.34;5005010;28;20508;-87
2021/03/23 04:40:57;;;;;;;2.10;1.90;;;;;;;1.62;100.00;97160.00;5004415;28;20033;-88
2021/03/23 04:43:31;;;;;;;2.40;2.20;;;;;;;1.72;100.00;97178.16;5021318;28;20099;-86
2021/03/23 04:45:57;;;;;;;3.03;2.13;;;;;;;1.76;100.00;97177.09;5005176;28;20087;-88
2021/03/23 04:48:23;;;;;;;2.97;2.53;;;;;;;1.70;100.00;97162.38;5006217;28;20057;-89
2021/03/23 04:50:49;;;;;;;4.55;3.25;;;;;;;1.74;100.00;97168.41;5021680;28;20064;-89
2021/03/23 04:53:28;;;;;;;2.53;2.33;;;;;;;1.79;100.00;97172.59;5006916;28;20033;-90
2021/03/23 04:55:54;;;;;;;1.67;1.58;;;;;;;1.89;100.00;97186.34;5006990;28;20099;-87
2021/03/23 04:58:20;;;;;;;4.00;3.50;;;;;;;1.89;100.00;97175.78;5006752;28;20471;-88
2021/03/23 05:00:46;;;;;;;3.42;2.83;;;;;;;1.94;100.00;97176.53;5005920;28;20033;-89
2021/03/23 05:03:27;;;;;;;2.30;2.10;;;;;;;1.99;100.00;97179.84;5007760;28;20040;-90
2021/03/23 05:05:58;;;;;;;2.55;2.35;;;;;;;1.97;100.00;97182.53;5006760;28;20072;-88
2021/03/23 05:08:24;;;;;;;1.15;1.15;;;;;;;1.96;100.00;97179.97;5011539;28;20033;-90
2021/03/23 05:10:51;;;;;;;2.25;2.00;;;;;;;2.05;100.00;97185.78;5007261;28;20033;-89
2021/03/23 05:13:17;;;;;;;2.30;1.73;;;;;;;2.12;100.00;97189.06;4993663;28;20497;-88
2021/03/23 05:15:44;;;;;;;2.60;2.15;;;;;;;2.16;100.00;97182.75;5019987;28;20036;-88
2021/03/23 05:18:09;;;;;;;1.65;1.55;;;;;;;2.23;100.00;97189.56;5002589;28;20033;-89
2021/03/23 05:20:35;;;;;;;2.13;1.92;;;;;;;2.28;100.00;97192.03;5002843;28;20033;-88
2021/03/23 05:23:01;;;;;;;0.85;0.85;;;;;;;2.29;100.00;97176.13;5018645;28;20036;-88
2021/03/23 05:25:26;;;;;;;2.72;1.67;;;;;;;2.39;100.00;97196.03;5002463;28;20029;-87
2021/03/23 05:27:52;;;;;;;4.80;3.03;;;;;;;2.28;100.00;97176.22;5002479;28;20048;-89
2021/03/23 05:30:18;;;;;;;2.10;1.63;;;;;;;2.35;100.00;97202.31;5001230;28;20029;-86
2021/03/23 05:32:44;;;;;;;1.90;1.75;;;;;;;2.35;100.00;97194.41;5017436;28;20033;-86
2021/03/23 05:35:11;;;;;;;2.75;2.55;;;;;;;2.43;100.00;97202.06;5001894;28;20030;-88
2021/03/23 05:37:37;;;;;;;3.17;2.88;;;;;;;2.42;100.00;97195.03;5018214;28;20216;-86
2021/03/23 05:40:04;;;;;;;6.57;5.70;;;;;;;2.45;100.00;97190.53;5000868;28;20143;-85
2021/03/23 05:42:41;;;;;;;5.05;4.60;;;;;;;2.56;100.00;97204.19;5016786;28;20065;-85
2021/03/23 05:45:14;;;;;;;3.83;2.20;;;;;;;2.48;100.00;97200.97;5000940;28;20496;-87
2021/03/23 05:47:43;;;;;;;3.85;3.22;;;;;;;2.41;100.00;97220.56;5017526;28;20041;-87
2021/03/23 05:50:21;;;;;;;6.05;2.75;;;;;;;2.35;100.00;97210.22;5016628;28;20500;-87
2021/03/23 05:52:55;;;;;;;2.08;1.90;;;;;;;2.45;100.00;97211.63;4999747;28;20029;-77
2021/03/23 05:55:29;;;;;;;2.28;1.63;;;;;;;2.55;100.00;97222.72;5002491;28;20029;-87
2021/03/23 05:57:58;;;;;;;2.50;2.22;;;;;;;2.46;100.00;97228.34;5019702;28;20040;-89
2021/03/23 06:00:33;;;;;;;2.60;2.40;;;;;;;2.52;100.00;97221.03;5000667;28;20471;-90
2021/03/23 06:03:20;;;;;;;5.28;2.00;;;;;;;2.76;100.00;97231.66;5000479;28;20495;-86
2021/03/23 06:06:07;;;;;;;4.60;3.55;;;;;;;2.91;100.00;97236.38;5031564;28;20022;-86
2021/03/23 06:08:36;;;;;;;5.78;4.72;;;;;;;2.97;100.00;97237.00;5013812;28;20602;-77
2021/03/23 06:11:04;;;;;;;6.28;3.72;;;;;;;2.96;100.00;97234.41;5031385;28;20025;-87
2021/03/23 06:13:38;;;;;;;5.07;3.78;;;;;;;2.95;100.00;97241.50;5015771;28;20029;-87
2021/03/23 06:16:30;;;;;;;11.48;6.03;;;;;;;3.04;100.00;97248.22;5002757;28;20037;-88
2021/03/23 06:19:18;;;;;;;5.55;3.92;;;;;;;3.03;100.00;97254.41;4999789;28;20036;-84
2021/03/23 06:21:50;;;;;;;3.30;3.00;;;;;;;3.03;100.00;97241.19;5013200;28;20031;-84
2021/03/23 06:24:29;;;;;;;11.15;5.10;;;;;;;3.13;100.00;97239.94;4997576;28;20405;-85
2021/03/23 06:27:18;;;;;;;7.05;2.33;;;;;;;3.25;99.89;97255.34;4995619;28;20035;-85
2021/03/23 06:29:59;;;;;;;10.52;3.42;;;;;;;3.24;99.56;97251.81;4995262;28;20025;-85
2021/03/23 06:32:45;;;;;;;5.15;2.13;;;;;;;3.20;99.76;97244.06;5007230;28;20037;-85
2021/03/23 06:35:16;;;;;;;4.60;4.20;;;;;;;3.02;100.00;97224.47;5016549;28;20036;-85
2021/03/23 06:37:43;;;;;;;4.40;3.85;;;;;;;3.16;100.00;97256.53;4996688;28;20093;-86
2021/03/23 06:40:24;;;;;;;3.72;2.90;;;;;;;3.08;100.00;97241.88;4999049;28;20040;-83
2021/03/23 06:42:55;;;;;;;4.00;3.30;;;;;;;3.01;100.00;97251.84;5002614;28;20184;-85
2021/03/23 06:46:04;;;;;;;3.17;2.67;;;;;;;2.81;100.00;97208.56;5004215;28;20041;-86
2021/03/23 06:52:05;;;;;;;3.90;3.58;;;;;;;2.61;100.00;97181.13;4975138;28;20102;-86
2021/03/23 06:54:39;;;;;;;4.47;3.10;;;;;;;2.78;100.00;97211.31;4955832;28;20074;-87
2021/03/23 06:57:13;;;;;;;3.00;2.75;;;;;;;3.17;99.46;97263.53;4998427;28;20531;-86
2021/03/23 07:04:32;;;;;;;;;;;;;;;;;;;;;
2021/03/23 07:10:56;;;;;;;;;;;;;;;;;;;;;
2021/03/23 07:13:52;;;;;;;;;;;;;;;;;;;;;
2021/03/23 07:24:10;;;;;;;;;;;;;;;;;;;;;
2021/03/23 07:27:04;;;;;;;1.45;1.38;;;;;;;3.71;98.18;97283.50;4981386;28;20133;-87
2021/03/23 07:32:48;;;;;;;2.83;1.88;;;;;;;3.80;94.92;97249.63;4937265;29;20107;-87
2021/03/23 07:35:55;;;;;;;;;;;;;;;;;;;;;
2021/03/23 07:38:54;;;;;;;2.05;1.85;;;;;;;4.17;92.91;97256.06;5011981;28;20101;-86
2021/03/23 07:41:46;;;;;;;4.45;2.20;;;;;;;3.94;91.56;97211.19;5003990;28;20405;-87
2021/03/23 07:44:24;;;;;;;12.20;2.97;;;;;;;4.68;90.57;97284.75;4997090;28;20033;-78
2021/03/23 07:50:42;;;;;;;;;;;;;;;;;;;;;
2021/03/23 07:53:27;;;;;;;0.63;0.63;;;;;;;4.95;86.96;97270.34;4946552;29;20098;-87
2021/03/23 07:56:04;;;;;;;2.13;1.80;;;;;;;5.00;87.02;97257.72;4991243;28;20049;-86
2021/03/23 07:59:07;;;;;;;2.28;2.00;;;;;;;4.98;86.58;97288.75;4979193;28;20037;-83
2021/03/23 08:01:45;;;;;;;;;;;;;;;5.08;87.54;97284.75;4996505;28;20080;-85
2021/03/23 08:04:39;;;;;;;4.03;2.72;;;;;;;4.99;86.56;97263.94;4997478;28;19918;-85
2021/03/23 08:07:18;;;;;;;4.57;2.30;;;;;;;5.11;86.56;97273.13;4965580;28;20038;-86
2021/03/23 08:09:59;;;;;;;2.75;2.13;;;;;;;5.53;86.16;97280.94;4989250;28;20103;-87
2021/03/23 08:12:59;;;;;;;1.95;1.45;;;;;;;5.92;83.87;97285.28;4995422;28;20049;-86
2021/03/23 08:19:13;;;;;;;;;;;;;;;;;;;;;
2021/03/23 08:22:00;;;;;;;2.47;2.28;;;;;;;5.70;81.92;97295.16;5017048;28;20129;-86
2021/03/23 08:24:51;;;;;;;5.90;2.70;;;;;;;5.62;84.41;97297.31;4995972;28;20057;-86
2021/03/23 08:28:09;;;;;;;1.77;1.42;;;;;;;5.43;84.73;97299.06;4979280;28;20145;-87
2021/03/23 08:31:08;;;;;;;4.57;1.90;;;;;;;5.27;84.95;97296.25;4997621;28;20092;-88
2021/03/23 08:33:54;;;;;;;0.57;0.57;;;;;;;4.63;87.21;97294.69;4993888;28;20512;-86
2021/03/23 08:36:40;;;;;;;2.13;1.42;;;;;;;4.73;88.92;97294.25;4979811;28;20486;-87
2021/03/23 08:39:47;;;;;;;;;;;;;;;;;;;;;
2021/03/23 08:43:04;;;;;;;;;;;;;;;;;;;;;
2021/03/23 08:46:05;;;;;;;;;;;;;;;;;;;;;
2021/03/23 08:49:20;;;;;;;;;;;;;;;;;;;;;
2021/03/23 09:04:53;;;;;;;1.48;1.38;;;;;;;6.32;80.66;97296.63;4938229;29;20044;-86
2021/03/23 09:11:04;;;;;;;3.78;2.53;;;;;;;6.97;75.53;97298.63;4927518;29;20455;-85
2021/03/23 09:13:55;;;;;;;;;;;;;;;;;;;;;
2021/03/23 09:17:07;;;;;;;1.23;1.13;;;;;;;7.23;72.33;97220.13;4900745;29;20135;-87
2021/03/23 09:20:06;;;;;;;;;;;;;;;;;;;;;
2021/03/23 09:22:54;;;;;;;0.63;0.63;;;;;;;7.77;69.91;97253.50;5020358;28;20029;-86
2021/03/23 09:25:44;;;;;;;1.27;0.40;;;;;;;8.09;66.94;97272.03;5004154;28;20033;-86
2021/03/23 09:28:33;;;;;;;0.28;0.28;;;;;;;8.52;65.99;97290.97;5015952;28;20033;-87
2021/03/23 09:31:03;;;;;;;1.92;1.23;;;;;;;8.56;64.96;97289.81;5023118;28;20029;-87
2021/03/23 09:33:35;;;;;;;0.47;0.40;;;;;;;8.33;63.35;97290.28;5020333;28;20030;-86
2021/03/23 09:36:29;;;;;;;0.25;0.25;;;;;;;8.08;62.36;97274.81;5005838;28;20057;-87
2021/03/23 09:39:26;;;;;;;;;;;;;;;;;;;;;
2021/03/23 09:42:17;;;;;;;2.35;1.30;;;;;;;7.69;64.86;97293.00;5032727;28;20128;-86
2021/03/23 09:44:46;;;;;;;2.65;1.55;;;;;;;7.41;65.90;97208.50;5003269;28;20098;-87
2021/03/23 09:50:51;;;;;;;2.03;1.48;;;;;;;7.65;66.70;97292.31;4945197;28;20626;-86
2021/03/23 09:53:34;;;;;;;1.45;0.73;;;;;;;6.99;69.40;97273.66;4933754;29;20050;-86
2021/03/23 09:56:07;;;;;;;1.52;1.42;;;;;;;6.92;66.24;97256.31;5001339;28;20041;-86
2021/03/23 09:58:33;;;;;;;0.52;0.40;;;;;;;7.05;65.17;97286.63;5011650;28;20029;-86
2021/03/23 10:01:25;;;;;;;0.73;0.73;;;;;;;7.03;62.99;97299.16;4998847;28;20041;-84
2021/03/23 10:03:52;;;;;;;2.08;1.13;;;;;;;7.41;64.94;97286.47;4992800;28;20532;-86
2021/03/23 10:09:32;;;;;;;1.23;0.90;;;;;;;7.00;61.93;97303.78;5003931;28;20071;-85
2021/03/23 10:12:04;;;;;;;0.52;0.52;;;;;;;7.05;58.57;97307.03;5000815;28;20037;-86
2021/03/23 10:14:31;;;;;;;2.93;1.70;;;;;;;7.35;60.26;97294.78;5019397;28;20034;-85
2021/03/23 10:17:24;;;;;;;0.60;0.60;;;;;;;7.77;56.96;97278.31;5027186;28;20029;-86
2021/03/23 10:19:53;;;;;;;6.53;2.95;;;;;;;8.11;57.33;97270.16;5003840;28;20087;-85
2021/03/23 10:22:31;;;;;;;0.68;0.68;;;;;;;7.95;57.11;97257.78;5000302;28;20035;-87
2021/03/23 10:24:58;;;;;;;3.03;1.85;;;;;;;8.56;54.92;97303.13;5005512;28;20091;-87
2021/03/23 10:27:27;;;;;;;0.40;0.40;;;;;;;8.88;57.46;97296.78;5003617;28;20045;-76
2021/03/23 10:29:56;;;;;;;0.45;0.45;;;;;;;8.42;55.25;97295.09;5031183;28;20033;-77
2021/03/23 10:32:44;;;;;;;0.60;0.38;;;;;;;8.51;56.54;97294.56;4996798;28;20039;-76
2021/03/23 10:35:14;;;;;;;2.05;1.02;;;;;;;9.05;55.43;97293.97;5029223;28;20115;-76
2021/03/23 10:37:40;;;;;;;2.65;2.03;;;;;;;9.42;53.26;97283.72;5012155;28;20088;-77
2021/03/23 10:40:26;;;;;;;1.10;0.75;;;;;;;9.89;52.16;97284.28;4995349;28;20040;-76
2021/03/23 10:42:52;;;;;;;0.93;0.85;;;;;;;11.09;48.97;97301.31;5029839;28;20033;-78
2021/03/23 10:45:34;;;;;;;3.15;1.50;;;;;;;11.70;47.44;97292.59;4995393;28;20041;-76
2021/03/23 10:48:14;;;;;;;0.90;0.82;;;;;;;11.55;47.99;97290.94;5029398;28;20117;-76
2021/03/23 10:50:40;;;;;;;1.02;0.70;;;;;;;12.57;44.61;97294.31;5028821;28;20073;-77
2021/03/23 10:53:22;;;;;;;0.85;0.65;;;;;;;13.07;43.33;97294.91;5011680;28;20035;-78
2021/03/23 10:55:50;;;;;;;1.33;0.90;;;;;;;12.09;43.90;97294.25;5011658;28;20029;-76
2021/03/23 10:58:31;;;;;;;0.32;0.32;;;;;;;11.86;45.26;97293.22;4995064;28;20029;-78
2021/03/23 11:01:16;;;;;;;2.03;0.82;;;;;;;12.24;44.40;97287.75;4996248;28;20060;-82
2021/03/23 11:03:52;;;;;;;1.30;0.73;;;;;;;11.74;44.36;97282.50;5005959;28;20029;-83
2021/03/23 11:06:35;;;;;;;2.50;1.20;;;;;;;11.26;46.91;97298.31;5015113;28;20128;-85
2021/03/23 11:09:03;;;;;;;3.78;1.17;;;;;;;10.79;48.26;97295.34;4997142;28;20408;-82
2021/03/23 11:11:32;;;;;;;6.50;2.97;;;;;;;10.29;49.33;97282.63;4994311;28;20439;-83
2021/03/23 11:13:57;;;;;;;1.00;0.90;;;;;;;9.58;52.29;97293.38;4995146;28;20581;-82
2021/03/23 11:16:27;;;;;;;1.48;1.17;;;;;;;9.85;54.68;97293.44;4995167;28;20440;-83
2021/03/23 11:18:55;;;;;;;1.45;0.98;;;;;;;9.86;51.71;97288.97;5011415;28;20113;-83
2021/03/23 11:21:20;;;;;;;1.20;1.10;;;;;;;9.72;52.62;97276.50;4995291;28;20044;-81
2021/03/23 11:23:48;;;;;;;1.20;1.10;;;;;;;9.42;53.08;97289.94;4995174;28;20029;-83
2021/03/23 11:26:23;;;;;;;1.35;0.70;;;;;;;9.58;54.50;97295.19;4994453;28;20129;-82
2021/03/23 11:29:02;;;;;;;1.30;1.20;;;;;;;7.33;58.71;97280.72;4995316;28;20033;-82
2021/03/23 11:31:29;;;;;;;1.90;1.27;;;;;;;7.24;61.34;97280.34;4996495;28;20037;-81
2021/03/23 11:33:56;;;;;;;0.75;0.57;;;;;;;7.52;62.61;97264.63;4995254;28;20108;-82
2021/03/23 11:36:23;;;;;;;1.27;1.23;;;;;;;8.34;59.35;97276.88;5012867;28;20060;-83
2021/03/23 11:38:49;;;;;;;0.63;0.63;;;;;;;7.58;59.95;97278.47;4995393;28;20028;-82
2021/03/23 11:41:22;;;;;;;1.33;1.00;;;;;;;7.35;60.97;97230.09;4996257;28;20034;-82
2021/03/23 11:43:59;;;;;;;0.43;0.43;;;;;;;7.33;59.77;97274.53;5030529;28;20049;-83
2021/03/23 11:46:28;;;;;;;3.80;2.85;;;;;;;7.74;59.13;97273.16;4995960;28;20281;-83
2021/03/23 11:49:04;;;;;;;2.40;1.33;;;;;;;8.22;60.19;97282.00;4995324;28;20028;-82
2021/03/23 11:51:30;;;;;;;1.65;0.98;;;;;;;7.35;60.25;97278.00;4995953;28;20057;-82
2021/03/23 11:53:56;;;;;;;0.90;0.55;;;;;;;7.71;62.80;97288.44;5011314;28;20041;-82
2021/03/23 11:56:22;;;;;;;0.90;0.90;;;;;;;8.30;56.59;97277.16;5011995;28;20033;-82
2021/03/23 11:58:48;;;;;;;1.20;1.00;;;;;;;8.27;57.88;97278.16;4995611;28;20029;-83
2021/03/23 12:01:14;;;;;;;1.05;0.47;;;;;;;8.65;55.89;97286.59;4995217;28;20049;-81
2021/03/23 12:03:39;;;;;;;1.70;1.42;;;;;;;8.74;57.33;97275.41;5011111;28;20044;-81
2021/03/23 12:06:08;;;;;;;1.10;0.77;;;;;;;8.82;54.13;97288.28;5011765;28;20029;-83
2021/03/23 12:08:41;;;;;;;3.00;1.35;;;;;;;8.81;56.15;97292.75;4995258;28;20120;-82
2021/03/23 12:11:06;;;;;;;;;;;;;;;8.69;55.95;97288.16;4995431;28;20045;-82
2021/03/23 12:13:51;;;;;;;0.28;0.28;;;;;;;9.00;53.32;97284.53;5030483;28;19923;-82
2021/03/23 12:16:31;;;;;;;1.42;1.35;;;;;;;9.55;51.64;97272.22;5010836;28;20053;-83
2021/03/23 12:19:07;;;;;;;1.45;0.73;;;;;;;9.87;51.01;97258.66;4994683;28;20036;-83
2021/03/23 12:21:33;;;;;;;1.15;1.00;;;;;;;9.93;50.37;97283.16;5012653;28;20037;-81
2021/03/23 12:23:59;;;;;;;1.35;0.63;;;;;;;10.03;50.18;97275.41;5015070;28;20035;-83
2021/03/23 12:26:25;;;;;;;1.55;0.85;;;;;;;9.93;50.01;97274.28;5014602;28;20103;-82
2021/03/23 12:28:51;;;;;;;1.42;0.95;;;;;;;11.22;47.26;97270.06;4998353;28;20029;-82
2021/03/23 12:31:17;;;;;;;0.45;0.45;;;;;;;12.39;47.43;97281.31;4998605;28;20032;-85
2021/03/23 12:33:43;;;;;;;0.45;0.45;;;;;;;10.93;46.92;97275.66;4998360;28;20653;-85
2021/03/23 12:36:09;;;;;;;2.13;1.50;;;;;;;11.69;48.06;97268.56;4999304;28;20053;-81
2021/03/23 12:38:36;;;;;;;2.03;1.40;;;;;;;12.43;44.39;97269.38;4998336;28;20028;-82
2021/03/23 12:41:02;;;;;;;3.80;2.22;;;;;;;12.82;44.57;97265.56;4999250;28;20025;-78
2021/03/23 12:43:27;;;;;;;4.22;1.20;;;;;;;12.35;45.14;97277.13;4997951;28;20035;-76
2021/03/23 12:45:56;;;;;;;1.17;0.60;;;;;;;11.70;45.53;97263.13;5000231;28;20168;-84
2021/03/23 12:48:23;;;;;;;3.00;1.25;;;;;;;11.44;45.98;97275.63;5004178;28;20029;-88
2021/03/23 12:50:50;;;;;;;2.53;1.23;;;;;;;10.99;48.54;97273.44;5000948;28;20476;-86
2021/03/23 12:53:17;;;;;;;1.42;1.30;;;;;;;10.31;48.77;97270.00;5002488;28;20127;-85
2021/03/23 12:55:49;;;;;;;1.02;0.63;;;;;;;9.70;47.88;97257.03;4998314;28;20490;-77
2021/03/23 12:58:17;;;;;;;0.50;0.50;;;;;;;8.93;50.30;97257.38;5013553;28;20033;-76
2021/03/23 13:00:43;;;;;;;0.85;0.80;;;;;;;8.52;52.58;97257.13;5013616;28;20375;-75
2021/03/23 13:03:12;;;;;;;0.50;0.50;;;;;;;8.50;51.52;97253.72;5013145;28;20104;-76
2021/03/23 13:05:38;;;;;;;1.55;0.88;;;;;;;8.24;53.22;97270.34;5013299;28;20029;-77
2021/03/23 13:08:05;;;;;;;2.95;1.77;;;;;;;7.77;54.95;97253.50;5013595;28;20564;-76
2021/03/23 13:10:34;;;;;;;0.80;0.80;;;;;;;7.57;56.00;97241.28;5013622;28;20516;-76
2021/03/23 13:13:05;;;;;;;5.97;1.85;;;;;;;7.68;57.95;97254.88;5013130;28;20040;-76